Time;durP1;ratioP1;P1;durP2;ratioP2;P2;SDS_P1;SDS_P2;PMS_P1;PMS_P2;Temp;Humidity;BMP_temperature;BMP_pressure;BME280_temperature;BME280_humidity;BME280_pressure;Samples;Min_cycle;Max_cycle;Signal;HPM_P1;HPM_P2
2022/01/06 00:01:02;;;;;;;3.03;2.33;;;5.90;80.90;;;;;;4954203;28;20473;-51
2022/01/06 00:03:31;;;;;;;4.10;2.10;;;5.80;81.10;;;;;;4965045;28;20470;-53
2022/01/06 00:06:03;;;;;;;5.93;2.00;;;5.80;81.30;;;;;;4947931;28;20464;-53
2022/01/06 00:08:30;;;;;;;8.07;2.57;;;5.80;81.30;;;;;;4969125;28;20470;-53
2022/01/06 00:10:57;;;;;;;5.50;1.90;;;5.80;81.50;;;;;;4949052;28;20482;-53
2022/01/06 00:13:46;;;;;;;3.80;2.20;;;5.80;81.40;;;;;;4951962;28;20471;-54
2022/01/06 00:16:28;;;;;;;1.80;1.67;;;5.80;81.70;;;;;;4951753;28;20457;-53
2022/01/06 00:24:16;;;;;;;1.73;1.37;;;5.80;81.90;;;;;;4963460;28;20485;-50
2022/01/06 00:26:43;;;;;;;4.00;1.67;;;5.80;81.90;;;;;;4943386;29;20467;-51
2022/01/06 00:29:10;;;;;;;2.03;1.83;;;5.80;81.70;;;;;;4949173;28;20459;-50
2022/01/06 00:31:37;;;;;;;3.90;2.30;;;5.80;81.80;;;;;;4952143;28;20498;-51
2022/01/06 00:34:08;;;;;;;2.20;1.80;;;5.80;82.70;;;;;;4949885;28;21047;-51
2022/01/06 00:36:36;;;;;;;4.03;2.30;;;5.80;82.40;;;;;;4947664;28;20466;-51
2022/01/06 00:39:03;;;;;;;2.60;1.60;;;5.80;82.40;;;;;;4947161;28;20463;-52
2022/01/06 00:41:33;;;;;;;2.20;1.80;;;5.70;82.40;;;;;;4947769;28;20533;-50
2022/01/06 00:44:00;;;;;;;2.90;1.40;;;5.70;82.10;;;;;;4963467;28;20961;-51
2022/01/06 00:46:27;;;;;;;3.83;2.10;;;5.70;82.60;;;;;;4950953;28;20462;-50
2022/01/06 00:48:54;;;;;;;2.70;1.50;;;5.70;82.40;;;;;;4949650;28;20478;-51
2022/01/06 00:51:21;;;;;;;1.60;1.50;;;5.70;82.80;;;;;;4954611;28;20496;-51
2022/01/06 00:53:49;;;;;;;1.33;1.13;;;5.60;83.30;;;;;;4941445;28;20461;-51
2022/01/06 00:56:15;;;;;;;3.67;1.70;;;5.60;83.40;;;;;;4962666;28;20467;-51
2022/01/06 00:58:42;;;;;;;3.20;2.20;;;5.60;83.30;;;;;;4948907;28;20470;-51
2022/01/06 01:01:09;;;;;;;1.77;1.67;;;5.70;82.90;;;;;;4945233;28;20832;-51
2022/01/06 01:03:36;;;;;;;2.90;1.70;;;5.70;82.80;;;;;;4952194;28;21023;-51
2022/01/06 01:06:03;;;;;;;2.07;1.87;;;5.60;83.10;;;;;;4952448;28;20466;-51
2022/01/06 01:08:32;;;;;;;2.57;2.00;;;5.60;83.30;;;;;;4954253;28;20470;-51
2022/01/06 01:10:59;;;;;;;1.80;1.67;;;5.60;83.50;;;;;;4950454;28;20494;-50
2022/01/06 01:13:31;;;;;;;3.93;1.73;;;5.70;82.90;;;;;;4952998;28;20550;-50
2022/01/06 01:16:08;;;;;;;2.03;1.93;;;5.60;82.90;;;;;;4952470;28;20478;-51
2022/01/06 01:18:45;;;;;;;2.60;1.70;;;5.60;83.20;;;;;;4955098;28;20730;-50
2022/01/06 01:21:12;;;;;;;4.10;2.40;;;5.60;83.40;;;;;;4952816;28;20474;-51
2022/01/06 01:23:39;;;;;;;2.40;1.90;;;5.60;83.40;;;;;;4952959;28;20481;-51
2022/01/06 01:26:06;;;;;;;3.30;1.80;;;5.50;83.40;;;;;;4953285;28;20822;-52
2022/01/06 01:28:42;;;;;;;2.43;1.53;;;5.50;83.30;;;;;;4953379;28;20462;-51
2022/01/06 01:31:24;;;;;;;4.17;1.53;;;5.60;83.30;;;;;;4952218;28;20489;-50
2022/01/06 01:33:56;;;;;;;4.20;1.87;;;5.50;83.30;;;;;;4957406;28;20478;-51
2022/01/06 01:36:23;;;;;;;2.77;1.80;;;5.50;83.10;;;;;;4965527;28;20972;-50
2022/01/06 01:38:50;;;;;;;5.03;1.87;;;5.50;83.00;;;;;;4949812;28;20469;-50
2022/01/06 01:41:17;;;;;;;4.50;2.13;;;5.40;83.20;;;;;;4952841;28;20466;-53
2022/01/06 01:43:50;;;;;;;2.37;2.00;;;5.40;83.40;;;;;;4964380;28;20463;-51
2022/01/06 01:46:19;;;;;;;2.23;2.03;;;5.40;83.50;;;;;;4938793;28;20473;-51
2022/01/06 01:49:11;;;;;;;2.83;1.50;;;5.40;83.40;;;;;;4951701;28;20520;-51
2022/01/06 01:51:33;;;;;;;3.40;1.80;;;5.40;83.50;;;;;;4953504;28;20872;-51
2022/01/06 01:54:01;;;;;;;2.67;1.77;;;5.40;83.80;;;;;;4950296;28;20473;-51
2022/01/06 01:56:28;;;;;;;3.97;1.70;;;5.30;83.40;;;;;;4965333;28;21090;-51
2022/01/06 01:58:55;;;;;;;1.67;1.47;;;5.30;83.90;;;;;;4953641;28;21016;-51
2022/01/06 02:01:22;;;;;;;5.53;1.93;;;5.30;84.20;;;;;;4951760;28;20478;-51
2022/01/06 02:03:49;;;;;;;4.67;2.20;;;5.30;84.10;;;;;;4956330;28;20558;-51
2022/01/06 02:06:16;;;;;;;2.70;1.50;;;5.40;83.90;;;;;;4950122;28;21091;-50
2022/01/06 02:08:44;;;;;;;4.03;1.87;;;5.40;83.70;;;;;;4952330;28;21015;-51
2022/01/06 02:11:10;;;;;;;7.03;1.93;;;5.40;83.30;;;;;;4969282;28;20507;-51
2022/01/06 02:13:47;;;;;;;2.23;1.53;;;5.40;83.50;;;;;;4947402;28;20839;-52
2022/01/06 02:16:23;;;;;;;1.73;1.53;;;5.50;83.70;;;;;;4960021;28;21007;-51
2022/01/06 02:18:50;;;;;;;3.23;1.43;;;5.50;83.60;;;;;;4950483;28;20467;-50
2022/01/06 02:21:18;;;;;;;3.47;2.10;;;5.50;83.40;;;;;;4949562;28;20466;-51
2022/01/06 02:23:45;;;;;;;3.70;1.90;;;5.50;83.30;;;;;;4956166;28;20486;-51
2022/01/06 02:26:12;;;;;;;3.40;2.00;;;5.50;83.40;;;;;;4951743;28;20471;-51
2022/01/06 02:28:40;;;;;;;2.83;1.43;;;5.50;82.90;;;;;;4950607;28;20959;-52
2022/01/06 02:31:08;;;;;;;4.20;1.90;;;5.50;83.10;;;;;;4949611;28;21200;-50
2022/01/06 02:33:35;;;;;;;1.43;1.13;;;5.50;82.90;;;;;;4952445;28;20472;-52
2022/01/06 02:36:03;;;;;;;4.60;1.83;;;5.50;82.80;;;;;;4967282;28;21977;-51
2022/01/06 02:38:30;;;;;;;3.53;1.40;;;5.40;82.80;;;;;;4951812;28;20458;-51
2022/01/06 02:40:57;;;;;;;3.17;1.73;;;5.40;82.80;;;;;;4961788;28;20837;-51
2022/01/06 02:43:25;;;;;;;2.83;1.90;;;5.40;82.70;;;;;;4954635;28;20485;-51
2022/01/06 02:45:52;;;;;;;3.03;1.50;;;5.40;82.90;;;;;;4950646;28;20534;-52
2022/01/06 02:48:19;;;;;;;3.40;2.13;;;5.40;82.50;;;;;;4953730;28;20467;-51
2022/01/06 02:50:49;;;;;;;6.30;1.90;;;5.30;82.50;;;;;;4951271;28;20472;-51
2022/01/06 02:53:17;;;;;;;4.80;1.67;;;5.30;82.70;;;;;;4952830;28;21128;-51
2022/01/06 02:55:53;;;;;;;4.60;1.60;;;5.30;82.60;;;;;;4951449;28;20467;-51
2022/01/06 02:58:40;;;;;;;9.97;2.27;;;5.30;83.00;;;;;;4948958;28;20514;-50
2022/01/06 03:01:07;;;;;;;3.97;2.30;;;5.20;83.20;;;;;;4966065;28;20467;-51
2022/01/06 03:03:34;;;;;;;12.10;5.23;;;5.20;83.60;;;;;;4958276;28;20470;-52
2022/01/06 03:06:01;;;;;;;8.40;3.83;;;5.20;83.90;;;;;;4962003;28;20466;-51
2022/01/06 03:08:28;;;;;;;4.23;2.07;;;5.20;84.10;;;;;;4953260;28;20554;-52
2022/01/06 03:10:56;;;;;;;4.83;1.60;;;5.20;84.00;;;;;;4953618;28;21014;-52
2022/01/06 03:13:23;;;;;;;5.63;2.23;;;5.20;84.00;;;;;;4953019;28;20869;-51
2022/01/06 03:15:50;;;;;;;3.10;2.23;;;5.20;83.30;;;;;;4953715;28;20451;-51
2022/01/06 03:18:17;;;;;;;9.83;2.17;;;5.20;83.60;;;;;;4954233;28;20529;-51
2022/01/06 03:20:43;;;;;;;4.67;1.73;;;5.20;83.20;;;;;;4949579;28;21311;-50
2022/01/06 03:23:10;;;;;;;8.40;1.53;;;5.20;83.20;;;;;;4934423;28;20497;-51
2022/01/06 03:25:37;;;;;;;4.10;1.80;;;5.20;82.90;;;;;;4948042;28;20673;-50
2022/01/06 03:28:04;;;;;;;4.20;1.93;;;5.20;83.10;;;;;;4951950;28;20466;-50
2022/01/06 03:30:31;;;;;;;3.30;1.50;;;5.20;83.30;;;;;;4951221;28;20451;-51
2022/01/06 03:32:58;;;;;;;6.40;2.53;;;5.20;83.40;;;;;;4947326;28;20500;-51
2022/01/06 03:35:25;;;;;;;2.70;1.43;;;5.20;83.40;;;;;;4951312;28;20482;-50
2022/01/06 03:37:52;;;;;;;5.00;1.70;;;5.20;83.20;;;;;;4952433;28;20470;-50
2022/01/06 03:40:19;;;;;;;2.10;1.40;;;5.10;83.50;;;;;;4949968;28;20471;-50
2022/01/06 03:42:46;;;;;;;6.23;2.00;;;5.10;83.40;;;;;;4953023;28;20467;-50
2022/01/06 03:45:16;;;;;;;3.43;1.77;;;5.10;83.10;;;;;;4962641;28;20478;-51
2022/01/06 03:47:44;;;;;;;2.60;2.40;;;5.10;83.00;;;;;;4948766;28;20477;-51
2022/01/06 03:50:13;;;;;;;6.70;2.40;;;5.10;82.90;;;;;;4962985;28;20492;-50
2022/01/06 03:52:40;;;;;;;6.33;1.77;;;5.00;82.90;;;;;;4948140;28;20503;-51
2022/01/06 03:55:09;;;;;;;5.63;1.77;;;5.00;82.80;;;;;;4949853;28;20473;-51
2022/01/06 03:57:36;;;;;;;7.37;2.70;;;5.00;82.60;;;;;;4949875;28;20486;-50
2022/01/06 04:00:07;;;;;;;3.80;2.00;;;5.00;82.50;;;;;;4951275;28;20506;-51
2022/01/06 04:02:34;;;;;;;3.83;1.83;;;5.00;82.50;;;;;;4951391;28;20482;-51
2022/01/06 04:05:03;;;;;;;2.23;1.27;;;5.00;82.60;;;;;;4962454;28;20463;-51
2022/01/06 04:07:30;;;;;;;6.23;2.40;;;5.00;82.60;;;;;;4951842;28;20502;-51
2022/01/06 04:09:57;;;;;;;7.00;2.00;;;5.00;83.00;;;;;;4952578;28;20543;-51
2022/01/06 04:12:23;;;;;;;5.53;2.40;;;4.90;82.90;;;;;;4950157;28;20865;-51
2022/01/06 04:14:50;;;;;;;10.63;4.40;;;4.90;82.60;;;;;;4949460;28;20458;-51
2022/01/06 04:17:17;;;;;;;9.23;3.70;;;4.90;82.80;;;;;;4947442;28;20471;-50
2022/01/06 04:19:43;;;;;;;10.50;3.20;;;5.00;82.70;;;;;;4952658;28;22725;-50
2022/01/06 04:22:10;;;;;;;5.10;2.90;;;4.90;82.90;;;;;;4951710;28;20459;-50
2022/01/06 04:24:37;;;;;;;3.83;2.20;;;4.90;83.00;;;;;;4953134;28;20467;-52
2022/01/06 04:27:04;;;;;;;5.70;3.53;;;4.90;82.90;;;;;;4949152;28;21010;-51
2022/01/06 04:29:31;;;;;;;7.27;2.33;;;4.90;82.80;;;;;;4949430;28;20471;-51
2022/01/06 04:31:58;;;;;;;4.93;1.93;;;4.90;82.80;;;;;;4959558;28;20498;-51
2022/01/06 04:34:25;;;;;;;2.90;1.97;;;5.00;82.60;;;;;;4949218;28;20462;-51
2022/01/06 04:36:55;;;;;;;3.73;2.20;;;4.90;82.80;;;;;;4949136;28;20554;-51
2022/01/06 04:39:22;;;;;;;12.17;2.37;;;4.90;82.90;;;;;;4953250;28;20463;-51
2022/01/06 04:41:49;;;;;;;7.83;2.73;;;4.80;83.20;;;;;;4949832;28;20469;-51
2022/01/06 04:44:16;;;;;;;6.13;2.10;;;4.80;83.30;;;;;;4950818;28;20474;-51
2022/01/06 04:46:44;;;;;;;8.13;2.87;;;4.90;83.10;;;;;;4956319;28;20900;-50
2022/01/06 04:49:11;;;;;;;5.30;2.10;;;4.90;82.90;;;;;;4966750;28;20467;-51
2022/01/06 04:51:38;;;;;;;8.43;3.33;;;4.90;81.90;;;;;;4951566;28;20841;-50
2022/01/06 04:54:06;;;;;;;5.70;2.40;;;4.80;81.50;;;;;;4949893;28;20544;-51
2022/01/06 04:56:37;;;;;;;5.07;2.57;;;4.80;82.30;;;;;;4950381;28;20470;-51
2022/01/06 04:59:09;;;;;;;2.13;1.80;;;4.70;82.80;;;;;;4968461;28;20455;-52
2022/01/06 05:01:37;;;;;;;4.30;2.33;;;4.70;82.60;;;;;;4952994;28;20471;-51
2022/01/06 05:04:05;;;;;;;7.13;3.67;;;4.80;82.40;;;;;;4948694;28;20468;-51
2022/01/06 05:06:32;;;;;;;10.90;2.20;;;4.70;82.60;;;;;;4954775;28;20475;-51
2022/01/06 05:08:59;;;;;;;13.57;2.53;;;4.70;82.60;;;;;;4957758;28;20463;-51
2022/01/06 05:11:25;;;;;;;5.87;1.60;;;4.80;82.50;;;;;;4959102;28;20490;-51
2022/01/06 05:13:52;;;;;;;8.57;2.60;;;4.80;82.20;;;;;;4957651;28;20459;-51
2022/01/06 05:16:19;;;;;;;8.97;2.03;;;4.80;82.10;;;;;;4952031;28;20463;-51
2022/01/06 05:18:46;;;;;;;6.57;2.23;;;4.70;82.50;;;;;;4957510;28;20460;-51
2022/01/06 05:21:13;;;;;;;5.10;2.60;;;4.70;82.40;;;;;;4949699;28;20475;-51
2022/01/06 05:23:41;;;;;;;3.67;2.80;;;4.70;82.50;;;;;;4953412;28;20482;-51
2022/01/06 05:26:08;;;;;;;6.97;2.20;;;4.70;82.40;;;;;;4952960;28;20478;-51
2022/01/06 05:28:35;;;;;;;4.57;1.77;;;4.70;82.40;;;;;;4955904;28;20467;-50
2022/01/06 05:31:02;;;;;;;6.50;1.90;;;4.70;82.30;;;;;;4954542;28;20462;-51
2022/01/06 05:33:29;;;;;;;6.80;3.77;;;4.70;81.70;;;;;;4950872;28;20499;-50
2022/01/06 05:35:56;;;;;;;4.50;2.90;;;4.70;82.50;;;;;;4969243;28;20473;-51
2022/01/06 05:38:23;;;;;;;8.77;3.00;;;4.70;82.70;;;;;;4955979;28;20964;-50
2022/01/06 05:40:50;;;;;;;5.37;2.47;;;4.70;83.00;;;;;;4954753;28;20477;-51
2022/01/06 05:43:19;;;;;;;7.63;2.30;;;4.70;82.60;;;;;;4957071;28;20940;-51
2022/01/06 05:45:47;;;;;;;10.80;2.97;;;4.70;82.70;;;;;;4953983;28;20558;-51
2022/01/06 05:48:15;;;;;;;5.13;1.80;;;4.70;82.40;;;;;;4970876;28;20501;-51
2022/01/06 05:50:42;;;;;;;5.13;2.33;;;4.70;82.50;;;;;;4954455;28;20459;-51
2022/01/06 05:53:11;;;;;;;8.60;2.57;;;4.60;82.70;;;;;;4959373;28;20497;-52
2022/01/06 05:55:38;;;;;;;9.77;4.13;;;4.60;83.00;;;;;;4958381;28;20455;-51
2022/01/06 05:58:05;;;;;;;8.53;3.40;;;4.60;83.10;;;;;;4956086;28;20466;-51
2022/01/06 06:00:32;;;;;;;7.20;2.30;;;4.60;82.80;;;;;;4952754;28;20467;-51
2022/01/06 06:02:59;;;;;;;8.10;2.53;;;4.60;83.20;;;;;;4950914;28;20470;-51
2022/01/06 06:05:26;;;;;;;6.90;2.83;;;4.60;83.30;;;;;;4950964;28;20471;-52
2022/01/06 06:07:53;;;;;;;6.40;3.03;;;4.60;83.20;;;;;;4955826;28;20468;-51
2022/01/06 06:10:21;;;;;;;8.30;3.37;;;4.60;83.50;;;;;;4954592;28;20570;-51
2022/01/06 06:12:52;;;;;;;6.93;2.50;;;4.70;83.60;;;;;;4949029;28;20659;-52
2022/01/06 06:15:20;;;;;;;7.67;2.50;;;4.70;83.30;;;;;;4956346;28;20549;-51
2022/01/06 06:17:50;;;;;;;6.57;2.30;;;4.70;82.30;;;;;;4964412;28;20466;-51
2022/01/06 06:20:23;;;;;;;6.50;2.43;;;4.70;82.30;;;;;;4955157;28;20459;-51
2022/01/06 06:22:50;;;;;;;11.60;3.33;;;4.70;82.00;;;;;;4952941;28;20566;-51
2022/01/06 06:25:17;;;;;;;10.77;2.50;;;4.70;81.60;;;;;;4952183;28;20471;-51
2022/01/06 06:27:44;;;;;;;11.30;2.80;;;4.70;82.40;;;;;;4949438;28;20471;-51
2022/01/06 06:30:11;;;;;;;9.90;4.00;;;4.70;82.20;;;;;;4967780;28;20480;-51
2022/01/06 06:32:39;;;;;;;5.23;2.50;;;4.70;82.10;;;;;;4952312;28;20574;-51
2022/01/06 06:35:07;;;;;;;6.50;2.67;;;4.70;82.00;;;;;;4948440;28;20492;-51
2022/01/06 06:37:34;;;;;;;6.63;3.13;;;4.70;81.50;;;;;;4952428;28;20466;-51
2022/01/06 06:40:01;;;;;;;6.67;3.13;;;4.70;81.70;;;;;;4947533;28;20463;-51
2022/01/06 06:42:28;;;;;;;5.17;2.90;;;4.70;81.60;;;;;;4953075;28;20985;-51
2022/01/06 06:44:55;;;;;;;7.67;4.47;;;4.70;81.50;;;;;;4946874;28;20475;-52
2022/01/06 06:47:23;;;;;;;4.80;2.30;;;4.70;81.80;;;;;;4950708;28;20477;-50
2022/01/06 06:49:49;;;;;;;4.27;2.23;;;4.70;82.20;;;;;;4951349;28;20870;-51
2022/01/06 06:52:16;;;;;;;7.00;2.13;;;4.70;82.10;;;;;;4953822;28;20501;-51
2022/01/06 06:54:43;;;;;;;5.50;2.80;;;4.80;82.00;;;;;;4954882;28;20478;-51
2022/01/06 06:57:10;;;;;;;8.37;2.20;;;4.80;81.80;;;;;;4952289;28;20987;-51
2022/01/06 06:59:37;;;;;;;9.97;2.50;;;4.90;81.50;;;;;;4966600;28;21032;-51
2022/01/06 07:02:03;;;;;;;9.63;2.53;;;4.80;81.70;;;;;;4949174;28;20530;-51
2022/01/06 07:04:30;;;;;;;8.37;2.97;;;4.80;82.00;;;;;;4950526;28;20458;-51
2022/01/06 07:07:12;;;;;;;18.60;3.03;;;4.80;81.70;;;;;;4963964;28;20994;-51
2022/01/06 07:09:39;;;;;;;8.77;3.30;;;4.90;81.80;;;;;;4953141;28;20466;-51
2022/01/06 07:12:09;;;;;;;10.80;3.00;;;4.90;81.40;;;;;;4953277;28;20490;-51
2022/01/06 07:14:36;;;;;;;4.20;2.47;;;4.90;81.80;;;;;;4942163;28;20467;-51
2022/01/06 07:17:03;;;;;;;4.33;2.50;;;4.90;81.60;;;;;;4948488;28;20462;-51
2022/01/06 07:19:30;;;;;;;7.53;3.20;;;4.90;81.50;;;;;;4947853;28;20458;-51
2022/01/06 07:21:57;;;;;;;7.00;2.53;;;4.90;81.70;;;;;;4944382;28;20469;-52
2022/01/06 07:24:24;;;;;;;11.20;2.90;;;5.00;81.80;;;;;;4953022;28;21034;-51
2022/01/06 07:26:52;;;;;;;9.27;2.97;;;5.00;82.10;;;;;;4953008;28;20467;-51
2022/01/06 07:29:19;;;;;;;6.00;2.40;;;5.00;81.90;;;;;;4951599;28;20465;-51
2022/01/06 07:31:45;;;;;;;4.60;2.30;;;5.00;82.40;;;;;;4952373;28;20467;-52
2022/01/06 07:34:13;;;;;;;4.03;2.27;;;5.00;82.30;;;;;;4948260;28;20540;-52
2022/01/06 07:36:40;;;;;;;8.97;2.60;;;5.10;81.90;;;;;;4946673;28;21010;-51
2022/01/06 07:39:06;;;;;;;5.27;2.30;;;5.00;82.00;;;;;;4949621;28;20466;-51
2022/01/06 07:41:33;;;;;;;6.70;2.43;;;5.00;81.80;;;;;;4965875;28;20471;-52
2022/01/06 07:44:00;;;;;;;3.43;2.03;;;5.00;81.70;;;;;;4949243;28;20897;-51
2022/01/06 07:46:27;;;;;;;6.73;3.00;;;5.00;81.80;;;;;;4950444;28;20470;-51
2022/01/06 07:48:57;;;;;;;4.70;2.83;;;5.00;81.90;;;;;;4949186;28;20463;-51
2022/01/06 07:51:26;;;;;;;7.13;2.70;;;5.00;81.90;;;;;;4947930;28;20553;-51
2022/01/06 07:53:53;;;;;;;6.37;2.13;;;5.00;81.80;;;;;;4949582;28;20494;-52
2022/01/06 07:56:21;;;;;;;5.97;2.30;;;5.00;81.80;;;;;;4947745;28;20924;-53
2022/01/06 07:58:48;;;;;;;4.40;2.20;;;5.00;81.60;;;;;;4947308;28;20500;-52
2022/01/06 08:01:15;;;;;;;5.17;2.33;;;5.00;81.50;;;;;;4955942;28;20503;-53
2022/01/06 08:03:45;;;;;;;8.67;2.23;;;5.00;81.50;;;;;;4955714;28;20482;-53
2022/01/06 08:06:14;;;;;;;8.20;2.40;;;5.00;81.70;;;;;;4958641;28;20470;-54
2022/01/06 08:08:41;;;;;;;7.30;3.20;;;5.00;81.80;;;;;;4965365;28;20452;-53
2022/01/06 08:11:08;;;;;;;5.97;3.00;;;5.00;81.50;;;;;;4950846;28;20962;-54
2022/01/06 08:13:39;;;;;;;6.73;2.30;;;5.00;80.30;;;;;;4949817;28;20498;-53
2022/01/06 08:16:07;;;;;;;11.60;3.50;;;5.00;80.70;;;;;;4948608;28;20471;-53
2022/01/06 08:18:33;;;;;;;6.03;3.03;;;4.90;80.90;;;;;;4951323;28;20463;-53
2022/01/06 08:21:00;;;;;;;2.53;2.03;;;4.90;81.60;;;;;;4944670;28;20962;-54
2022/01/06 08:23:28;;;;;;;5.63;2.40;;;4.80;82.00;;;;;;4941121;28;20483;-54
2022/01/06 08:25:55;;;;;;;6.80;2.30;;;4.80;82.10;;;;;;4963432;28;20485;-53
2022/01/06 08:28:24;;;;;;;6.80;3.03;;;4.80;82.00;;;;;;4951476;28;20564;-54
2022/01/06 08:30:52;;;;;;;8.50;2.27;;;4.80;82.50;;;;;;4947230;28;20818;-53
2022/01/06 08:33:19;;;;;;;6.77;2.80;;;4.90;82.00;;;;;;4948322;28;21039;-53
2022/01/06 08:35:46;;;;;;;5.00;2.40;;;4.90;82.40;;;;;;4948928;28;20465;-53
2022/01/06 08:38:15;;;;;;;5.23;2.70;;;4.80;82.70;;;;;;4946222;28;20498;-53
2022/01/06 08:40:42;;;;;;;5.50;2.47;;;4.80;83.10;;;;;;4945840;28;20496;-53
2022/01/06 08:43:09;;;;;;;4.50;2.27;;;4.90;83.30;;;;;;4949615;28;20474;-54
2022/01/06 08:45:36;;;;;;;4.53;2.30;;;4.90;83.40;;;;;;4946907;28;20676;-53
2022/01/06 08:48:03;;;;;;;10.50;2.33;;;5.00;83.30;;;;;;4947344;28;20502;-54
2022/01/06 08:50:30;;;;;;;6.80;2.67;;;5.00;83.30;;;;;;4948672;28;20475;-54
2022/01/06 08:52:57;;;;;;;4.63;2.50;;;5.10;83.20;;;;;;4945911;28;20600;-53
2022/01/06 08:55:26;;;;;;;8.60;2.77;;;5.10;83.10;;;;;;4946618;28;20463;-53
2022/01/06 08:57:59;;;;;;;7.07;2.70;;;5.10;83.10;;;;;;4947949;28;20446;-55
2022/01/06 09:00:27;;;;;;;7.40;2.70;;;5.20;83.20;;;;;;4952652;28;20455;-54
2022/01/06 09:02:54;;;;;;;3.30;2.80;;;5.20;83.10;;;;;;4948077;28;20515;-54
2022/01/06 09:05:24;;;;;;;12.03;3.70;;;5.30;82.70;;;;;;4947750;28;20467;-54
2022/01/06 09:07:52;;;;;;;7.20;3.20;;;5.40;82.40;;;;;;4950230;28;20477;-53
2022/01/06 09:10:19;;;;;;;5.53;3.23;;;5.50;80.70;;;;;;4950710;28;20548;-53
2022/01/06 09:12:46;;;;;;;7.67;3.87;;;5.50;80.20;;;;;;4953039;28;20569;-53
2022/01/06 09:15:12;;;;;;;6.40;2.70;;;5.60;80.30;;;;;;4947336;28;20908;-53
2022/01/06 09:17:39;;;;;;;11.07;3.40;;;5.70;80.00;;;;;;4949104;28;20956;-53
2022/01/06 09:20:08;;;;;;;5.23;2.30;;;5.70;79.60;;;;;;4965754;28;20526;-53
2022/01/06 09:22:41;;;;;;;6.70;2.77;;;5.70;80.50;;;;;;4947277;28;20506;-53
2022/01/06 09:25:10;;;;;;;5.03;2.40;;;5.80;80.80;;;;;;4940821;28;20818;-54
2022/01/06 09:27:38;;;;;;;6.67;2.40;;;5.80;80.80;;;;;;4951210;28;20507;-53
2022/01/06 09:30:06;;;;;;;5.83;2.20;;;5.80;80.80;;;;;;4950010;28;20477;-53
2022/01/06 09:32:33;;;;;;;6.67;2.63;;;5.90;80.40;;;;;;4950913;28;20477;-53
2022/01/06 09:35:00;;;;;;;5.47;2.50;;;5.90;80.10;;;;;;4952466;28;20810;-53
2022/01/06 09:37:29;;;;;;;7.97;2.40;;;5.90;80.00;;;;;;4950558;28;20450;-51
2022/01/06 09:39:59;;;;;;;6.63;1.83;;;5.90;80.10;;;;;;4954334;28;20550;-50
2022/01/06 09:42:25;;;;;;;8.90;2.17;;;5.90;79.60;;;;;;4950767;28;20468;-50
2022/01/06 09:44:53;;;;;;;6.73;2.60;;;5.90;79.90;;;;;;4956281;28;21071;-50
2022/01/06 09:47:21;;;;;;;6.97;2.50;;;6.00;79.80;;;;;;4952016;28;20463;-50
2022/01/06 09:50:10;;;;;;;5.33;2.07;;;6.10;79.20;;;;;;4954342;28;20470;-49
2022/01/06 09:52:37;;;;;;;3.90;2.13;;;6.10;79.60;;;;;;4954357;28;20840;-49
2022/01/06 09:55:05;;;;;;;6.97;3.00;;;6.20;79.00;;;;;;4951486;28;20466;-50
2022/01/06 09:57:32;;;;;;;6.27;3.20;;;6.20;78.30;;;;;;4941927;28;20481;-50
2022/01/06 10:00:00;;;;;;;4.73;2.40;;;6.30;77.60;;;;;;4953005;28;20460;-50
2022/01/06 10:02:35;;;;;;;6.77;2.53;;;6.30;77.50;;;;;;4953841;28;20868;-50
2022/01/06 10:05:03;;;;;;;8.73;3.07;;;6.50;77.10;;;;;;4966072;28;20466;-50
2022/01/06 10:07:39;;;;;;;8.10;3.30;;;6.50;76.70;;;;;;4954765;28;20519;-50
2022/01/06 10:10:11;;;;;;;14.30;3.40;;;6.60;75.20;;;;;;4962104;28;20467;-50
2022/01/06 10:12:40;;;;;;;6.43;2.63;;;6.80;75.00;;;;;;4947787;28;20454;-50
2022/01/06 10:15:19;;;;;;;8.07;2.67;;;6.80;74.80;;;;;;4954641;28;20554;-49
2022/01/06 10:17:55;;;;;;;5.33;3.67;;;6.90;74.50;;;;;;4962565;28;20491;-50
2022/01/06 10:20:26;;;;;;;8.03;3.30;;;6.90;74.30;;;;;;4950412;28;20446;-50
2022/01/06 10:22:58;;;;;;;6.73;2.77;;;6.90;74.30;;;;;;4947612;28;21061;-50
2022/01/06 10:25:30;;;;;;;7.57;3.87;;;6.90;74.30;;;;;;4946716;28;20479;-50
2022/01/06 10:28:19;;;;;;;6.87;2.90;;;6.90;74.20;;;;;;4950730;28;20468;-50
2022/01/06 10:30:50;;;;;;;9.60;3.27;;;6.90;74.40;;;;;;4949723;28;20490;-50
2022/01/06 10:33:19;;;;;;;9.50;3.13;;;6.90;73.80;;;;;;4963694;28;20525;-51
2022/01/06 10:35:48;;;;;;;6.07;2.70;;;6.80;74.70;;;;;;4956846;28;20466;-50
2022/01/06 10:38:25;;;;;;;8.10;3.20;;;6.80;74.90;;;;;;4950967;28;20846;-51
2022/01/06 10:40:52;;;;;;;7.33;2.43;;;6.80;74.70;;;;;;4951971;28;21000;-51
2022/01/06 10:43:33;;;;;;;7.47;3.50;;;6.80;74.20;;;;;;4951275;28;20553;-51
2022/01/06 10:46:02;;;;;;;6.60;3.10;;;6.80;74.80;;;;;;4952115;28;20462;-50
2022/01/06 10:48:30;;;;;;;14.93;3.93;;;6.70;75.20;;;;;;4954478;28;20966;-49
2022/01/06 10:50:59;;;;;;;6.07;2.50;;;6.70;75.90;;;;;;4952619;28;20474;-50
2022/01/06 10:53:26;;;;;;;7.63;2.83;;;6.70;76.20;;;;;;4951702;28;20509;-50
2022/01/06 10:55:58;;;;;;;6.83;2.23;;;6.80;75.90;;;;;;4950659;28;20503;-51
2022/01/06 10:58:26;;;;;;;3.93;2.40;;;6.90;75.90;;;;;;4943172;28;20972;-49
2022/01/06 11:00:58;;;;;;;9.70;3.03;;;6.90;75.90;;;;;;4948249;28;21006;-50
2022/01/06 11:03:33;;;;;;;11.20;3.07;;;6.90;76.60;;;;;;4960617;28;20840;-50
2022/01/06 11:06:02;;;;;;;3.37;2.13;;;6.90;76.10;;;;;;4949314;28;20466;-50
2022/01/06 11:08:32;;;;;;;5.23;2.30;;;6.90;75.90;;;;;;4945908;28;20475;-50
2022/01/06 11:13:44;;;;;;;8.67;2.33;;;6.90;75.20;;;;;;4948071;28;20988;-51
2022/01/06 11:16:16;;;;;;;14.50;2.17;;;6.80;74.90;;;;;;4967243;28;20545;-50
2022/01/06 11:18:52;;;;;;;5.17;2.97;;;6.80;75.40;;;;;;4955439;28;20517;-50
2022/01/06 11:21:32;;;;;;;8.17;2.90;;;6.80;75.60;;;;;;4950282;28;20526;-50
2022/01/06 11:24:14;;;;;;;5.67;2.20;;;6.80;74.80;;;;;;4949953;28;20490;-50
2022/01/06 11:26:43;;;;;;;5.80;2.97;;;6.80;75.20;;;;;;4948933;28;20467;-50
2022/01/06 11:29:12;;;;;;;4.30;1.97;;;6.80;74.80;;;;;;4948173;28;20542;-50
2022/01/06 11:31:42;;;;;;;5.23;2.43;;;6.80;75.30;;;;;;4951900;28;21026;-50
2022/01/06 11:34:14;;;;;;;5.50;2.80;;;6.80;75.50;;;;;;4964581;28;20495;-50
2022/01/06 11:36:42;;;;;;;15.03;2.77;;;6.80;75.00;;;;;;4950068;28;20459;-51
2022/01/06 11:39:21;;;;;;;11.43;3.20;;;6.80;75.50;;;;;;4945876;28;20477;-50
2022/01/06 11:41:56;;;;;;;6.77;2.40;;;6.90;74.80;;;;;;4949311;28;20652;-49
2022/01/06 11:44:32;;;;;;;8.17;3.50;;;6.90;74.90;;;;;;4948243;28;20968;-50
2022/01/06 11:47:04;;;;;;;6.07;2.90;;;6.90;74.90;;;;;;4957255;28;20533;-49
2022/01/06 11:49:36;;;;;;;6.43;2.10;;;6.90;73.10;;;;;;4962953;28;20465;-50
2022/01/06 11:52:10;;;;;;;12.33;3.90;;;7.00;72.80;;;;;;4947150;28;20696;-51
2022/01/06 11:54:49;;;;;;;5.00;2.70;;;7.00;71.00;;;;;;4952812;28;20565;-51
2022/01/06 11:57:36;;;;;;;4.10;2.43;;;7.10;70.30;;;;;;4959567;28;20451;-50
2022/01/06 12:00:16;;;;;;;8.30;2.90;;;7.00;70.50;;;;;;4949450;28;20465;-50
2022/01/06 12:03:13;;;;;;;7.50;3.00;;;7.00;69.50;;;;;;4950454;28;20442;-50
2022/01/06 12:05:54;;;;;;;7.10;2.40;;;6.90;70.10;;;;;;4948704;28;20459;-50
2022/01/06 12:08:37;;;;;;;8.20;2.87;;;6.90;69.80;;;;;;4959720;28;20553;-50
2022/01/06 12:11:04;;;;;;;8.23;3.00;;;6.90;70.30;;;;;;4958231;28;20843;-49
2022/01/06 12:13:31;;;;;;;7.70;3.37;;;6.80;71.00;;;;;;4949856;28;21022;-50
2022/01/06 12:16:01;;;;;;;6.63;3.33;;;6.80;70.70;;;;;;4950023;28;20458;-50
2022/01/06 12:18:32;;;;;;;6.33;2.53;;;6.80;69.50;;;;;;4947633;28;20467;-50
2022/01/06 12:20:59;;;;;;;10.90;2.43;;;6.80;70.40;;;;;;4952274;28;20538;-50
2022/01/06 12:23:26;;;;;;;5.70;2.43;;;6.70;70.90;;;;;;4951366;28;20490;-51
2022/01/06 12:26:07;;;;;;;6.03;2.57;;;6.70;70.80;;;;;;4969483;28;21019;-50
2022/01/06 12:28:45;;;;;;;6.70;3.00;;;6.70;71.00;;;;;;4950379;28;20492;-50
2022/01/06 12:31:21;;;;;;;6.57;2.80;;;6.70;71.00;;;;;;4950702;28;20462;-50
2022/01/06 12:34:00;;;;;;;9.23;2.97;;;6.60;71.50;;;;;;4949996;28;20585;-50
2022/01/06 12:36:30;;;;;;;7.50;2.70;;;6.60;72.10;;;;;;4949070;28;20849;-51
2022/01/06 12:39:24;;;;;;;9.53;2.60;;;6.60;71.20;;;;;;4948242;28;20450;-50
2022/01/06 12:41:52;;;;;;;6.90;2.73;;;6.60;70.90;;;;;;4945785;28;20916;-50
2022/01/06 12:44:24;;;;;;;5.20;2.33;;;6.60;71.10;;;;;;4957217;28;20474;-50
2022/01/06 12:46:51;;;;;;;13.70;3.37;;;6.60;70.70;;;;;;4961969;28;20471;-50
2022/01/06 12:49:21;;;;;;;4.43;2.37;;;6.60;70.50;;;;;;4946091;28;20545;-50
2022/01/06 12:51:48;;;;;;;8.50;1.97;;;6.60;70.40;;;;;;4948702;28;20463;-50
2022/01/06 12:54:18;;;;;;;5.97;2.40;;;6.60;70.00;;;;;;4951051;28;20483;-50
2022/01/06 12:56:46;;;;;;;8.93;3.00;;;6.60;68.80;;;;;;4948918;28;20977;-50
2022/01/06 12:59:17;;;;;;;9.00;2.60;;;6.60;68.40;;;;;;4953952;28;20457;-50
2022/01/06 13:01:45;;;;;;;6.87;2.20;;;6.60;68.00;;;;;;4948281;28;20913;-50
2022/01/06 13:04:13;;;;;;;7.17;2.77;;;6.50;69.20;;;;;;4953851;28;20486;-50
2022/01/06 13:06:42;;;;;;;4.83;2.30;;;6.50;69.80;;;;;;4952140;28;20454;-50
2022/01/06 13:09:33;;;;;;;8.97;2.40;;;6.50;68.80;;;;;;4955356;28;20491;-50
2022/01/06 13:12:09;;;;;;;11.03;2.80;;;6.60;68.60;;;;;;4956585;28;20462;-50
2022/01/06 13:14:47;;;;;;;4.80;2.20;;;6.60;69.10;;;;;;4953717;28;20592;-50